Time;durP1;ratioP1;P1;durP2;ratioP2;P2;SDS_P1;SDS_P2;PMS_P1;PMS_P2;Temp;Humidity;BMP_temperature;BMP_pressure;BME280_temperature;BME280_humidity;BME280_pressure;Samples;Min_cycle;Max_cycle;Signal;HPM_P1;HPM_P2
2023/04/30 00:08:46;;;;;;;15.7;12.4;;;;;;;12.1;88;98530;;;;
2023/04/30 00:19:46;;;;;;;15.7;12.4;;;;;;;12.1;88.2;98530;;;;
2023/04/30 00:29:46;;;;;;;16.3;12.6;;;;;;;12.1;88.2;98530;;;;
2023/04/30 00:39:46;;;;;;;16.3;12.6;;;;;;;12.1;88.2;98530;;;;
2023/04/30 00:50:46;;;;;;;16.3;12.6;;;;;;;12.1;88.5;98540;;;;
2023/04/30 01:01:46;;;;;;;16.8;13.3;;;;;;;12;88.3;98550;;;;
2023/04/30 01:12:46;;;;;;;16.8;13.3;;;;;;;12;88.1;98550;;;;
2023/04/30 01:23:46;;;;;;;16.8;13.3;;;;;;;12.1;88;98540;;;;
2023/04/30 01:34:46;;;;;;;19;13.9;;;;;;;11.9;88.9;98540;;;;
2023/04/30 01:44:46;;;;;;;19;13.9;;;;;;;11.9;88.8;98550;;;;
2023/04/30 01:55:46;;;;;;;22.8;15.9;;;;;;;11.8;88.8;98560;;;;
2023/04/30 02:05:46;;;;;;;22.8;15.9;;;;;;;11.7;89;98560;;;;
2023/04/30 02:15:46;;;;;;;22.8;15.9;;;;;;;11.7;89.1;98570;;;;
2023/04/30 02:26:46;;;;;;;20.9;15.7;;;;;;;11.6;89;98570;;;;
2023/04/30 02:36:46;;;;;;;20.9;15.7;;;;;;;11.6;89.1;98580;;;;
2023/04/30 02:47:47;;;;;;;20.9;15.7;;;;;;;11.5;88.7;98590;;;;
2023/04/30 02:58:46;;;;;;;19.3;14;;;;;;;11.6;88.6;98590;;;;
2023/04/30 03:09:46;;;;;;;19.3;14;;;;;;;11.5;88.7;98610;;;;
2023/04/30 03:20:46;;;;;;;19.3;14;;;;;;;11.5;88.7;98610;;;;
2023/04/30 03:30:46;;;;;;;21.3;15.5;;;;;;;11.5;88.6;98620;;;;
2023/04/30 03:41:46;;;;;;;21.3;15.5;;;;;;;11.4;88.9;98620;;;;
2023/04/30 03:52:46;;;;;;;21.3;15.5;;;;;;;11.4;88.5;98640;;;;
2023/04/30 04:02:46;;;;;;;18.4;13.6;;;;;;;11.4;88.4;98640;;;;
2023/04/30 04:12:46;;;;;;;18.4;13.6;;;;;;;11.4;88.3;98650;;;;
2023/04/30 04:23:46;;;;;;;18.4;13.6;;;;;;;11.3;88.4;98670;;;;
2023/04/30 04:34:46;;;;;;;15;9.9;;;;;;;11.4;88.1;98680;;;;
2023/04/30 04:45:46;;;;;;;15;9.9;;;;;;;11.3;88.5;98690;;;;
2023/04/30 04:56:46;;;;;;;12.9;9.1;;;;;;;11.3;88.6;98710;;;;
2023/04/30 05:07:47;;;;;;;12.9;9.1;;;;;;;11.2;88.6;98730;;;;
2023/04/30 05:17:46;;;;;;;12.9;9.1;;;;;;;10.9;86.3;98750;;;;
2023/04/30 05:27:46;;;;;;;8.4;6.1;;;;;;;10.9;85.4;98780;;;;
2023/04/30 05:38:46;;;;;;;8.4;6.1;;;;;;;10.6;85.4;98800;;;;
2023/04/30 05:48:47;;;;;;;;;;;;;;;10.5;85;98820;;;;
2023/04/30 05:59:46;;;;;;;6.5;4.8;;;;;;;10.4;84.6;98840;;;;
2023/04/30 06:09:46;;;;;;;6.5;4.8;;;;;;;10.1;81.7;98860;;;;
2023/04/30 06:19:46;;;;;;;6.5;4.8;;;;;;;9.9;80.1;98870;;;;
2023/04/30 06:30:46;;;;;;;10.7;6;;;;;;;9.8;79.4;98890;;;;
2023/04/30 06:40:46;;;;;;;10.7;6;;;;;;;9.6;79.8;98900;;;;
2023/04/30 06:51:46;;;;;;;10.7;6;;;;;;;9.7;80;98910;;;;
2023/04/30 07:01:46;;;;;;;11.6;7.1;;;;;;;9.6;82.2;98930;;;;
2023/04/30 07:12:46;;;;;;;11.6;7.1;;;;;;;9.9;83.4;98940;;;;
2023/04/30 07:22:46;;;;;;;11.6;7.1;;;;;;;10.2;83.4;98940;;;;
2023/04/30 07:32:46;;;;;;;18.2;11.4;;;;;;;10.6;83;98950;;;;
2023/04/30 07:43:47;;;;;;;18.2;11.4;;;;;;;10.9;81;98950;;;;
2023/04/30 07:54:46;;;;;;;16.6;13;;;;;;;11.1;79.1;98960;;;;
2023/04/30 08:04:46;;;;;;;16.6;13;;;;;;;11.9;79.1;98970;;;;
2023/04/30 08:14:46;;;;;;;16.6;13;;;;;;;12.3;75.3;98960;;;;
2023/04/30 08:24:46;;;;;;;16;10.4;;;;;;;12.8;73.2;98970;;;;
2023/04/30 08:34:46;;;;;;;16;10.4;;;;;;;13.3;71.1;98970;;;;
2023/04/30 08:44:47;;;;;;;16;10.4;;;;;;;13.5;68.4;98970;;;;
2023/04/30 08:55:46;;;;;;;13.3;8.9;;;;;;;14.2;68.3;98960;;;;
2023/04/30 09:05:46;;;;;;;13.3;8.9;;;;;;;14.4;62.7;98960;;;;
2023/04/30 09:16:46;;;;;;;13.3;8.9;;;;;;;14.4;59.4;98970;;;;
2023/04/30 09:26:46;;;;;;;10.3;6.1;;;;;;;15;57.6;98960;;;;
2023/04/30 09:37:47;;;;;;;10.3;6.1;;;;;;;14.9;56;98970;;;;
2023/04/30 09:48:48;;;;;;;10.3;6.1;;;;;;;15.4;55.4;98970;;;;
2023/04/30 09:59:46;;;;;;;8.7;4.6;;;;;;;15.5;54;98960;;;;
2023/04/30 10:09:46;;;;;;;8.7;4.6;;;;;;;15.1;53.7;98940;;;;
2023/04/30 10:20:46;;;;;;;8.7;4.6;;;;;;;15.3;52.3;98940;;;;
2023/04/30 10:30:46;;;;;;;5.9;3.4;;;;;;;15.8;54.4;98930;;;;
2023/04/30 10:40:46;;;;;;;5.9;3.4;;;;;;;16;51;98940;;;;
2023/04/30 10:51:46;;;;;;;5.9;3.4;;;;;;;16.3;50.6;98930;;;;
2023/04/30 11:01:46;;;;;;;10.7;4.6;;;;;;;15.8;50.6;98930;;;;
2023/04/30 11:12:46;;;;;;;10.7;4.6;;;;;;;16.5;48.4;98920;;;;
2023/04/30 11:23:46;;;;;;;6.5;3.9;;;;;;;16.3;49.9;98920;;;;
2023/04/30 11:33:46;;;;;;;6.5;3.9;;;;;;;16.7;47.2;98910;;;;
2023/04/30 11:43:46;;;;;;;6.5;3.9;;;;;;;16.1;47.8;98930;;;;
2023/04/30 11:53:47;;;;;;;6.8;3.8;;;;;;;16.1;47.7;98920;;;;
2023/04/30 12:03:46;;;;;;;6.8;3.8;;;;;;;16.2;48.5;98920;;;;
2023/04/30 12:13:46;;;;;;;6.8;3.8;;;;;;;16.1;46.3;98920;;;;
2023/04/30 12:23:46;;;;;;;6;3;;;;;;;16.4;47.7;98930;;;;
2023/04/30 12:33:46;;;;;;;6;3;;;;;;;16.4;45.5;98910;;;;
2023/04/30 12:43:46;;;;;;;6;3;;;;;;;16.6;46.3;98910;;;;
2023/04/30 12:53:46;;;;;;;6.1;2.7;;;;;;;16.5;43.8;98900;;;;
2023/04/30 13:04:48;;;;;;;6.1;2.7;;;;;;;16.2;43.4;98900;;;;
2023/04/30 13:14:46;;;;;;;6.1;2.7;;;;;;;16.5;42.9;98890;;;;
2023/04/30 13:24:46;;;;;;;7.2;3.6;;;;;;;16.6;43.5;98880;;;;
2023/04/30 13:35:48;;;;;;;7.2;3.6;;;;;;;17;41.8;98890;;;;
2023/04/30 13:45:46;;;;;;;7.2;3.6;;;;;;;17.2;41.9;98880;;;;
2023/04/30 13:56:47;;;;;;;5.2;2.8;;;;;;;17.5;42.3;98880;;;;
2023/04/30 14:07:46;;;;;;;5.2;2.8;;;;;;;17.9;39.2;98880;;;;
2023/04/30 14:17:47;;;;;;;5.2;2.8;;;;;;;17.8;39.9;98870;;;;
2023/04/30 14:27:47;;;;;;;12.5;3;;;;;;;17.5;40.4;98870;;;;
2023/04/30 14:38:47;;;;;;;12.5;3;;;;;;;17.9;38.4;98880;;;;
2023/04/30 14:48:47;;;;;;;12.5;3;;;;;;;18.5;37.9;98880;;;;
2023/04/30 14:59:47;;;;;;;5.8;3.4;;;;;;;18.2;38.5;98890;;;;
2023/04/30 15:10:47;;;;;;;5.8;3.4;;;;;;;19;37.8;98880;;;;
2023/04/30 15:20:47;;;;;;;5.8;3.4;;;;;;;21.1;33.2;98880;;;;
2023/04/30 15:30:47;;;;;;;4.7;2.7;;;;;;;21.8;31.3;98880;;;;
2023/04/30 15:41:47;;;;;;;4.7;2.7;;;;;;;23.6;29.1;98880;;;;
2023/04/30 15:52:47;;;;;;;4.7;2.7;;;;;;;23.9;28.8;98880;;;;
2023/04/30 16:02:47;;;;;;;5.1;2.4;;;;;;;25.2;28.4;98890;;;;
2023/04/30 16:12:47;;;;;;;5.1;2.4;;;;;;;24;27.4;98890;;;;
2023/04/30 16:22:48;;;;;;;5.1;2.4;;;;;;;20.5;32.8;98880;;;;
2023/04/30 16:33:47;;;;;;;7;2.5;;;;;;;18.9;35.6;98890;;;;
2023/04/30 16:44:47;;;;;;;7;2.5;;;;;;;17.4;38.1;98900;;;;
2023/04/30 16:54:47;;;;;;;6.4;3.4;;;;;;;16.2;41.1;98900;;;;
2023/04/30 17:05:47;;;;;;;6.4;3.4;;;;;;;15.2;42.4;98920;;;;
2023/04/30 17:16:47;;;;;;;6.4;3.4;;;;;;;14.8;41;98920;;;;
2023/04/30 17:26:47;;;;;;;5.7;2.9;;;;;;;14.9;40.7;98940;;;;
2023/04/30 17:37:47;;;;;;;5.7;2.9;;;;;;;14;41.3;98960;;;;
2023/04/30 17:47:47;;;;;;;5.7;2.9;;;;;;;13.2;42.1;98970;;;;
2023/04/30 17:57:47;;;;;;;7.4;2.9;;;;;;;12.6;42.3;98980;;;;
2023/04/30 18:08:47;;;;;;;7.4;2.9;;;;;;;12.1;42.6;98990;;;;
2023/04/30 18:19:48;;;;;;;7.4;2.9;;;;;;;11.5;42.8;99000;;;;
2023/04/30 18:30:47;;;;;;;4.8;2.3;;;;;;;10.9;43.9;99010;;;;
2023/04/30 18:41:47;;;;;;;4.8;2.3;;;;;;;10.5;44.8;99020;;;;
2023/04/30 18:52:47;;;;;;;4.8;2.3;;;;;;;10;45.8;99030;;;;
2023/04/30 19:02:47;;;;;;;5;2.7;;;;;;;9.5;47.3;99040;;;;
2023/04/30 19:12:47;;;;;;;5;2.7;;;;;;;9.2;49.1;99050;;;;
2023/04/30 19:23:47;;;;;;;5.1;2.7;;;;;;;8.7;50.1;99050;;;;
2023/04/30 19:33:47;;;;;;;5.1;2.7;;;;;;;8.4;52.5;99060;;;;
2023/04/30 19:43:47;;;;;;;5.1;2.7;;;;;;;8;52.9;99070;;;;
2023/04/30 19:53:47;;;;;;;7.9;3.4;;;;;;;7.7;54.6;99070;;;;
2023/04/30 20:04:47;;;;;;;7.9;3.4;;;;;;;7.4;56.1;99080;;;;
2023/04/30 20:15:48;;;;;;;7.9;3.4;;;;;;;7.1;57.7;99090;;;;
2023/04/30 20:25:48;;;;;;;8.1;4;;;;;;;6.9;57.1;99100;;;;
2023/04/30 20:36:47;;;;;;;8.1;4;;;;;;;6.7;57.1;99100;;;;
2023/04/30 20:47:47;;;;;;;8.1;4;;;;;;;6.5;57.6;99100;;;;
2023/04/30 20:57:47;;;;;;;10.1;2.9;;;;;;;6.3;58.8;99110;;;;
2023/04/30 21:08:47;;;;;;;10.1;2.9;;;;;;;6.1;59.2;99110;;;;
2023/04/30 21:19:47;;;;;;;10.1;2.9;;;;;;;5.9;59.8;99110;;;;
2023/04/30 21:29:47;;;;;;;8.6;3.8;;;;;;;5.8;60.9;99120;;;;
2023/04/30 21:40:47;;;;;;;8.6;3.8;;;;;;;5.6;61.7;99130;;;;
2023/04/30 21:50:47;;;;;;;8.6;3.8;;;;;;;5.4;61.8;99130;;;;
2023/04/30 22:01:47;;;;;;;5.5;2.6;;;;;;;5;62.9;99140;;;;
2023/04/30 22:12:47;;;;;;;5.5;2.6;;;;;;;4.8;63.7;99150;;;;
2023/04/30 22:22:47;;;;;;;6.1;3.1;;;;;;;4.5;63.9;99160;;;;
2023/04/30 22:33:47;;;;;;;6.1;3.1;;;;;;;4.3;67.2;99170;;;;
2023/04/30 22:43:47;;;;;;;6.1;3.1;;;;;;;4.3;67;99170;;;;
2023/04/30 22:54:47;;;;;;;10.1;2.8;;;;;;;4.1;66.5;99170;;;;
2023/04/30 23:05:50;;;;;;;10.1;2.8;;;;;;;3.8;67.1;99180;;;;
2023/04/30 23:16:47;;;;;;;10.1;2.8;;;;;;;3.6;67.9;99180;;;;
2023/04/30 23:26:47;;;;;;;9.3;3;;;;;;;3.5;68.8;99180;;;;
2023/04/30 23:36:47;;;;;;;9.3;3;;;;;;;3.4;70.3;99180;;;;
2023/04/30 23:47:47;;;;;;;9.3;3;;;;;;;3.4;71.9;99190;;;;
2023/04/30 23:58:47;;;;;;;5.9;2.3;;;;;;;3.2;70.9;99190;;;;
